Time;durP1;ratioP1;P1;durP2;ratioP2;P2;SDS_P1;SDS_P2;PMS_P1;PMS_P2;Temp;Humidity;BMP_temperature;BMP_pressure;BME280_temperature;BME280_humidity;BME280_pressure;Samples;Min_cycle;Max_cycle;Signal;HPM_P1;HPM_P2
2022/10/28 00:01:36;;;;;;;23.35;11.50;;;18.70;99.90;;;;;;5029629;28;20021;-77
2022/10/28 00:04:02;;;;;;;26.80;10.60;;;18.60;99.90;;;;;;5026075;28;20044;-77
2022/10/28 00:06:32;;;;;;;19.58;9.40;;;18.70;99.90;;;;;;5023711;28;20022;-76
2022/10/28 00:08:58;;;;;;;25.77;12.63;;;18.70;99.90;;;;;;5020701;28;20109;-76
2022/10/28 00:11:29;;;;;;;25.90;10.45;;;18.70;99.90;;;;;;5020948;28;20018;-77
2022/10/28 00:14:00;;;;;;;29.00;11.75;;;18.70;99.90;;;;;;5020654;28;20588;-77
2022/10/28 00:16:31;;;;;;;26.83;10.88;;;18.60;99.90;;;;;;5019324;28;20025;-76
2022/10/28 00:18:59;;;;;;;19.50;9.20;;;18.70;99.90;;;;;;5047994;28;20406;-75
2022/10/28 00:21:32;;;;;;;26.17;11.95;;;18.70;99.90;;;;;;5016975;28;20030;-77
2022/10/28 00:23:59;;;;;;;22.40;9.93;;;18.70;99.90;;;;;;5033755;28;20037;-77
2022/10/28 00:26:30;;;;;;;21.25;10.82;;;18.60;99.90;;;;;;5035277;28;20030;-75
2022/10/28 00:28:57;;;;;;;29.58;11.30;;;18.70;99.90;;;;;;5031903;28;20056;-77
2022/10/28 00:31:24;;;;;;;27.25;11.07;;;18.70;99.90;;;;;;5032584;28;20022;-76
2022/10/28 00:33:51;;;;;;;24.05;10.50;;;18.70;99.90;;;;;;5028222;28;20025;-76
2022/10/28 00:36:18;;;;;;;25.58;10.55;;;18.60;99.90;;;;;;5017901;28;20014;-77
2022/10/28 00:38:47;;;;;;;24.88;10.60;;;18.70;99.90;;;;;;5039401;28;20031;-78
2022/10/28 00:41:16;;;;;;;22.77;10.93;;;18.70;99.90;;;;;;5023646;28;20025;-76
2022/10/28 00:43:44;;;;;;;21.88;9.90;;;18.60;99.90;;;;;;5027016;28;20109;-77
2022/10/28 00:46:22;;;;;;;21.40;10.90;;;18.60;99.90;;;;;;5033363;28;20028;-77
2022/10/28 00:48:52;;;;;;;16.13;10.80;;;18.60;99.90;;;;;;5036311;28;20079;-77
2022/10/28 00:51:21;;;;;;;20.48;11.73;;;18.60;99.90;;;;;;5031127;28;20375;-76
2022/10/28 00:53:48;;;;;;;18.40;9.65;;;18.60;99.90;;;;;;5026984;28;20033;-77
2022/10/28 00:56:15;;;;;;;24.90;10.52;;;18.60;99.90;;;;;;5029871;28;20022;-76
2022/10/28 00:58:42;;;;;;;23.40;10.57;;;18.60;99.90;;;;;;5032789;28;20363;-76
2022/10/28 01:01:08;;;;;;;23.48;10.85;;;18.60;99.90;;;;;;5027201;28;20049;-76
2022/10/28 01:03:35;;;;;;;20.35;10.60;;;18.60;99.90;;;;;;5028387;28;20486;-76
2022/10/28 01:06:02;;;;;;;22.27;11.50;;;18.60;99.90;;;;;;5017932;28;20085;-76
2022/10/28 01:08:28;;;;;;;26.52;10.85;;;18.60;99.90;;;;;;5020996;28;20026;-76
2022/10/28 01:11:21;;;;;;;25.00;10.48;;;18.60;99.90;;;;;;5022723;28;20100;-77
2022/10/28 01:14:03;;;;;;;23.90;10.27;;;18.70;99.90;;;;;;5029921;28;20053;-76
2022/10/28 01:16:32;;;;;;;24.30;10.02;;;18.70;99.90;;;;;;5021585;28;20048;-76
2022/10/28 01:19:16;;;;;;;26.90;11.50;;;18.70;99.90;;;;;;5020218;28;20041;-76
2022/10/28 01:21:52;;;;;;;22.70;10.07;;;18.70;99.90;;;;;;5020070;28;20026;-75
2022/10/28 01:24:30;;;;;;;23.52;10.50;;;18.70;99.90;;;;;;5028551;28;20072;-75
2022/10/28 01:27:22;;;;;;;23.08;10.88;;;18.60;99.90;;;;;;5035332;28;20053;-75
2022/10/28 01:30:09;;;;;;;25.20;10.35;;;18.60;99.90;;;;;;5034435;28;20481;-77
2022/10/28 01:32:54;;;;;;;20.15;9.55;;;18.60;99.90;;;;;;5024871;28;20024;-75
2022/10/28 01:35:22;;;;;;;20.63;10.25;;;18.60;99.90;;;;;;5028968;28;20021;-76
2022/10/28 01:38:07;;;;;;;27.45;10.13;;;18.70;99.90;;;;;;5032378;28;20067;-76
2022/10/28 01:40:42;;;;;;;23.52;11.40;;;18.70;99.90;;;;;;5020363;28;20026;-76
2022/10/28 01:43:27;;;;;;;18.45;9.52;;;18.70;99.90;;;;;;5025885;28;20018;-75
2022/10/28 01:46:10;;;;;;;24.77;10.65;;;18.70;99.90;;;;;;5026913;28;20075;-76
2022/10/28 01:48:40;;;;;;;27.33;10.68;;;18.70;99.90;;;;;;5020494;28;20034;-76
2022/10/28 01:51:25;;;;;;;24.27;10.02;;;18.60;99.90;;;;;;5022471;28;20056;-76
2022/10/28 01:53:55;;;;;;;22.95;9.00;;;18.60;99.90;;;;;;5017626;28;20430;-76
2022/10/28 01:56:26;;;;;;;20.38;9.77;;;18.70;99.90;;;;;;5025244;28;20033;-75
2022/10/28 01:58:54;;;;;;;;;;;18.60;99.90;;;;;;5035712;28;20034;-77
2022/10/28 02:01:22;;;;;;;22.10;9.85;;;18.70;99.90;;;;;;5001329;28;19905;-77
2022/10/28 02:03:49;;;;;;;25.75;9.43;;;18.70;99.90;;;;;;5016374;28;20018;-77
2022/10/28 02:06:19;;;;;;;22.85;9.63;;;18.70;99.90;;;;;;5021840;28;20026;-76
2022/10/28 02:08:48;;;;;;;19.30;9.25;;;18.70;99.90;;;;;;5030900;28;20026;-76
2022/10/28 02:11:39;;;;;;;26.17;9.60;;;18.70;99.90;;;;;;5025229;28;20049;-76
2022/10/28 02:14:05;;;;;;;22.38;9.60;;;18.60;99.90;;;;;;5022452;28;20116;-76
2022/10/28 02:16:43;;;;;;;23.75;9.85;;;18.70;99.90;;;;;;5020795;28;20022;-77
2022/10/28 02:19:36;;;;;;;24.23;9.38;;;18.70;99.90;;;;;;5017170;28;20112;-77
2022/10/28 02:22:23;;;;;;;17.52;9.07;;;18.70;99.90;;;;;;5022677;28;20025;-75
2022/10/28 02:25:08;;;;;;;25.45;10.80;;;18.60;99.90;;;;;;5035838;28;20116;-76
2022/10/28 02:27:43;;;;;;;21.17;9.43;;;18.60;99.90;;;;;;5015776;28;20026;-76
2022/10/28 02:30:24;;;;;;;22.88;9.30;;;18.70;99.90;;;;;;5031811;28;20057;-76
2022/10/28 02:32:51;;;;;;;;;;;18.70;99.90;;;;;;5033135;28;20060;-76
2022/10/28 02:35:24;;;;;;;23.38;10.55;;;18.70;99.90;;;;;;5025297;28;19912;-77
2022/10/28 02:37:52;;;;;;;18.00;10.40;;;18.60;99.90;;;;;;5023034;28;20021;-77
2022/10/28 02:40:22;;;;;;;21.75;10.60;;;18.60;99.90;;;;;;5022579;28;20056;-76
2022/10/28 02:43:02;;;;;;;20.40;9.70;;;18.60;99.90;;;;;;5017644;28;20025;-76
2022/10/28 02:45:34;;;;;;;19.10;10.38;;;18.60;99.90;;;;;;5021969;28;20036;-76
2022/10/28 02:48:08;;;;;;;33.88;10.13;;;18.60;99.90;;;;;;5017120;28;20064;-75
2022/10/28 02:50:38;;;;;;;19.75;9.05;;;18.60;99.90;;;;;;5017503;28;20026;-76
2022/10/28 02:53:18;;;;;;;24.00;10.35;;;18.60;99.90;;;;;;5023359;28;20033;-74
2022/10/28 02:55:51;;;;;;;19.48;10.02;;;18.60;99.90;;;;;;5012940;28;20090;-77
2022/10/28 02:58:17;;;;;;;22.90;9.48;;;18.70;99.90;;;;;;5034068;28;20549;-75
2022/10/28 03:00:45;;;;;;;24.88;9.75;;;18.60;99.90;;;;;;5032467;28;20071;-76
2022/10/28 03:03:11;;;;;;;24.85;9.68;;;18.60;99.90;;;;;;5026457;28;20033;-76
2022/10/28 03:05:37;;;;;;;19.73;9.63;;;18.60;99.90;;;;;;5025446;28;20485;-76
2022/10/28 03:08:03;;;;;;;21.33;9.52;;;18.60;99.90;;;;;;5028553;28;20060;-76
2022/10/28 03:10:29;;;;;;;24.98;10.90;;;18.50;99.90;;;;;;5018493;28;20430;-76
2022/10/28 03:12:54;;;;;;;30.45;10.35;;;18.60;99.90;;;;;;5008177;28;20042;-76
2022/10/28 03:15:20;;;;;;;16.25;9.25;;;18.50;99.90;;;;;;5012169;28;20035;-75
2022/10/28 03:17:46;;;;;;;15.75;9.00;;;18.60;99.90;;;;;;5000477;28;20437;-77
2022/10/28 03:20:12;;;;;;;22.35;10.05;;;18.60;99.90;;;;;;4996798;28;20022;-76
2022/10/28 03:22:38;;;;;;;23.70;9.85;;;18.60;99.90;;;;;;4999795;28;20510;-76
2022/10/28 03:25:04;;;;;;;17.60;9.63;;;18.60;99.90;;;;;;4998404;28;20033;-76
2022/10/28 03:27:30;;;;;;;26.80;10.45;;;18.50;99.90;;;;;;4998586;28;20085;-76
2022/10/28 03:29:58;;;;;;;22.90;8.98;;;18.50;99.90;;;;;;4997492;28;20026;-75
2022/10/28 03:32:24;;;;;;;26.75;11.07;;;18.50;99.90;;;;;;4997650;28;20019;-75
2022/10/28 03:34:50;;;;;;;20.73;10.18;;;18.50;99.90;;;;;;5001530;28;20375;-75
2022/10/28 03:37:16;;;;;;;25.33;10.45;;;18.50;99.90;;;;;;5014155;28;20026;-75
2022/10/28 03:39:41;;;;;;;36.78;11.88;;;18.50;99.90;;;;;;5015908;28;20054;-76
2022/10/28 03:42:07;;;;;;;20.05;9.80;;;18.50;99.90;;;;;;5015922;28;20052;-76
2022/10/28 03:44:33;;;;;;;28.25;10.20;;;18.50;99.90;;;;;;5031020;28;20494;-76
2022/10/28 03:46:59;;;;;;;16.40;9.15;;;18.50;99.90;;;;;;5015966;28;20076;-76
2022/10/28 03:49:25;;;;;;;25.35;10.30;;;18.50;99.90;;;;;;5015875;28;20071;-75
2022/10/28 03:51:50;;;;;;;20.73;9.90;;;18.50;99.90;;;;;;5015723;28;20125;-75
2022/10/28 03:54:16;;;;;;;20.60;9.88;;;18.50;99.90;;;;;;5031021;28;20066;-76
2022/10/28 03:56:42;;;;;;;28.48;10.23;;;18.50;99.90;;;;;;5015940;28;20049;-76
2022/10/28 03:59:09;;;;;;;20.42;9.55;;;18.50;99.90;;;;;;5015931;28;20030;-77
2022/10/28 04:01:34;;;;;;;24.33;9.13;;;18.50;99.90;;;;;;5015792;28;20025;-76
2022/10/28 04:04:00;;;;;;;21.70;9.77;;;18.50;99.90;;;;;;5014151;28;20080;-75
2022/10/28 04:06:26;;;;;;;21.00;8.93;;;18.50;99.90;;;;;;5012830;28;20027;-76
2022/10/28 04:08:52;;;;;;;19.60;9.20;;;18.40;99.90;;;;;;5015593;28;20026;-76
2022/10/28 04:11:17;;;;;;;23.05;10.02;;;18.40;99.90;;;;;;5015659;28;20076;-75
2022/10/28 04:13:43;;;;;;;21.80;8.82;;;18.40;99.90;;;;;;5015500;28;20034;-76
2022/10/28 04:16:09;;;;;;;18.10;9.57;;;18.40;99.90;;;;;;5013867;28;20062;-77
2022/10/28 04:18:35;;;;;;;19.10;8.95;;;18.40;99.90;;;;;;5019410;28;20014;-76
2022/10/28 04:21:02;;;;;;;29.65;11.48;;;18.50;99.90;;;;;;5034410;28;20022;-76
2022/10/28 04:23:28;;;;;;;18.08;9.30;;;18.50;99.90;;;;;;5019342;28;20418;-77
2022/10/28 04:25:54;;;;;;;20.05;10.35;;;18.50;99.90;;;;;;5018261;28;20018;-76
2022/10/28 04:28:23;;;;;;;31.27;10.48;;;18.50;99.90;;;;;;5019488;28;20079;-76
2022/10/28 04:30:48;;;;;;;20.95;9.85;;;18.50;99.90;;;;;;5023911;28;20036;-76
2022/10/28 04:33:15;;;;;;;21.10;8.88;;;18.50;99.90;;;;;;5019345;28;20088;-76
2022/10/28 04:35:43;;;;;;;25.20;10.73;;;18.50;99.90;;;;;;5015572;28;20587;-76
2022/10/28 04:38:10;;;;;;;27.00;9.55;;;18.50;99.90;;;;;;5005026;28;20022;-76
2022/10/28 04:40:36;;;;;;;19.08;8.73;;;18.50;99.90;;;;;;5010489;28;20030;-76
2022/10/28 04:43:02;;;;;;;24.73;10.13;;;18.50;99.90;;;;;;5030433;28;20048;-75
2022/10/28 04:45:27;;;;;;;20.35;9.45;;;18.50;99.90;;;;;;5015562;28;20390;-76
2022/10/28 04:48:00;;;;;;;16.15;8.63;;;18.50;99.90;;;;;;5019731;28;20033;-76
2022/10/28 04:50:26;;;;;;;22.23;9.48;;;18.50;99.90;;;;;;5019661;28;20034;-75
2022/10/28 04:52:52;;;;;;;30.60;10.27;;;18.50;99.90;;;;;;5018205;28;20025;-76
2022/10/28 04:55:19;;;;;;;26.80;10.40;;;18.50;99.90;;;;;;5020018;28;20551;-75
2022/10/28 04:57:56;;;;;;;24.40;10.15;;;18.50;99.90;;;;;;5019402;28;20022;-76
2022/10/28 05:00:22;;;;;;;19.00;9.85;;;18.40;99.90;;;;;;5034493;28;20111;-77
2022/10/28 05:02:49;;;;;;;20.23;9.40;;;18.50;99.90;;;;;;5019146;28;20018;-76
2022/10/28 05:05:15;;;;;;;21.90;9.90;;;18.50;99.90;;;;;;5019363;28;20509;-77
2022/10/28 05:07:40;;;;;;;34.03;11.35;;;18.50;99.90;;;;;;5019328;28;20059;-76
2022/10/28 05:10:07;;;;;;;19.02;8.98;;;18.50;99.90;;;;;;5027527;28;20462;-76
2022/10/28 05:12:33;;;;;;;21.38;9.55;;;18.40;99.90;;;;;;5019033;28;20072;-77
2022/10/28 05:14:58;;;;;;;25.23;10.43;;;18.50;99.90;;;;;;5034263;28;20022;-75
2022/10/28 05:17:24;;;;;;;28.33;9.98;;;18.40;99.90;;;;;;5012014;28;20093;-75
2022/10/28 05:19:51;;;;;;;22.95;9.95;;;18.40;99.90;;;;;;5022988;28;20054;-76
2022/10/28 05:22:16;;;;;;;30.08;10.95;;;18.40;99.90;;;;;;5020429;28;20018;-76
2022/10/28 05:24:42;;;;;;;25.65;10.70;;;18.40;99.90;;;;;;5017138;28;20029;-76
2022/10/28 05:27:08;;;;;;;28.40;10.18;;;18.40;99.90;;;;;;5030328;28;20084;-76
2022/10/28 05:29:34;;;;;;;26.27;9.90;;;18.50;99.90;;;;;;5020647;28;20022;-76
2022/10/28 05:31:59;;;;;;;21.65;10.27;;;18.50;99.90;;;;;;5009158;28;20030;-77
2022/10/28 05:34:25;;;;;;;28.80;10.43;;;18.50;99.90;;;;;;5016780;28;20046;-76
2022/10/28 05:36:51;;;;;;;21.88;8.85;;;18.50;99.90;;;;;;5017768;28;20097;-76
2022/10/28 05:39:17;;;;;;;18.33;8.55;;;18.40;99.90;;;;;;5030419;28;20077;-76
2022/10/28 05:41:43;;;;;;;21.88;9.77;;;18.40;99.90;;;;;;5020721;28;20022;-76
2022/10/28 05:44:09;;;;;;;21.65;9.82;;;18.40;99.90;;;;;;5015839;28;20036;-76
2022/10/28 05:46:34;;;;;;;23.95;9.65;;;18.40;99.90;;;;;;5024898;28;20022;-76
2022/10/28 05:49:00;;;;;;;27.05;10.05;;;18.40;99.90;;;;;;5029424;28;20037;-75
2022/10/28 05:51:26;;;;;;;36.65;10.02;;;18.40;99.90;;;;;;5023776;28;20026;-76
2022/10/28 05:53:52;;;;;;;25.25;10.60;;;18.30;99.90;;;;;;5016873;28;20018;-76
2022/10/28 05:56:18;;;;;;;20.25;9.57;;;18.30;99.90;;;;;;5019219;28;20029;-76
2022/10/28 05:58:44;;;;;;;24.85;9.52;;;18.40;99.90;;;;;;5024574;28;20021;-76
2022/10/28 06:01:09;;;;;;;20.23;10.85;;;18.30;99.90;;;;;;5020858;28;20022;-77
2022/10/28 06:03:35;;;;;;;20.77;9.57;;;18.30;99.90;;;;;;5025162;28;20030;-77
2022/10/28 06:06:01;;;;;;;24.98;10.43;;;18.30;99.90;;;;;;5027228;28;20105;-76
2022/10/28 06:08:27;;;;;;;23.33;10.40;;;18.30;99.90;;;;;;5023223;28;20052;-75
2022/10/28 06:10:54;;;;;;;21.58;9.07;;;18.30;99.90;;;;;;5019162;28;20057;-74
2022/10/28 06:13:20;;;;;;;22.77;11.00;;;18.30;99.90;;;;;;5027627;28;20041;-76
2022/10/28 06:15:54;;;;;;;21.25;10.13;;;18.30;99.90;;;;;;5023805;28;20014;-76
2022/10/28 06:18:20;;;;;;;24.63;10.45;;;18.40;99.90;;;;;;5024985;28;20017;-76
2022/10/28 06:21:04;;;;;;;18.88;9.88;;;18.30;99.90;;;;;;5019512;28;20058;-76
2022/10/28 06:23:30;;;;;;;21.95;10.48;;;18.30;99.90;;;;;;5021776;28;20083;-76
2022/10/28 06:25:57;;;;;;;34.85;11.60;;;18.40;99.90;;;;;;5017758;28;20022;-74
2022/10/28 06:28:23;;;;;;;28.98;10.23;;;18.40;99.90;;;;;;5016974;28;20037;-75
2022/10/28 06:30:49;;;;;;;23.02;10.02;;;18.40;99.90;;;;;;5016706;28;20483;-75
2022/10/28 06:33:15;;;;;;;26.23;10.50;;;18.40;99.90;;;;;;5029351;28;20026;-76
2022/10/28 06:35:41;;;;;;;24.10;9.65;;;18.40;99.90;;;;;;5024949;28;20033;-76
2022/10/28 06:38:07;;;;;;;19.90;9.00;;;18.40;99.90;;;;;;5022256;28;20022;-76
2022/10/28 06:40:32;;;;;;;27.95;10.88;;;18.30;99.90;;;;;;5033090;28;20017;-75
2022/10/28 06:43:04;;;;;;;21.10;9.88;;;18.40;99.90;;;;;;5031542;28;20065;-75
2022/10/28 06:45:31;;;;;;;23.70;9.55;;;18.40;99.90;;;;;;5022144;28;20018;-76
2022/10/28 06:47:59;;;;;;;28.55;10.60;;;18.40;99.90;;;;;;5006524;28;20029;-76
2022/10/28 06:50:25;;;;;;;22.98;9.75;;;18.30;99.90;;;;;;5018789;28;20538;-75
2022/10/28 06:52:51;;;;;;;20.08;10.63;;;18.40;99.90;;;;;;5032035;28;20017;-75
2022/10/28 06:55:17;;;;;;;23.30;9.93;;;18.40;99.90;;;;;;5025825;28;20437;-76
2022/10/28 06:57:43;;;;;;;17.98;9.18;;;18.50;99.90;;;;;;5022571;28;20375;-76
2022/10/28 07:00:09;;;;;;;25.40;10.57;;;18.50;99.90;;;;;;5016658;28;20434;-75
2022/10/28 07:02:35;;;;;;;29.65;10.02;;;18.50;99.90;;;;;;5021259;28;20025;-76
2022/10/28 07:05:01;;;;;;;31.80;9.05;;;18.50;99.90;;;;;;5017535;28;20435;-75
2022/10/28 07:07:27;;;;;;;28.00;10.40;;;18.60;99.90;;;;;;5017306;28;20080;-77
2022/10/28 07:09:53;;;;;;;24.63;9.07;;;18.60;99.90;;;;;;5026886;28;20036;-76
2022/10/28 07:12:19;;;;;;;18.75;8.90;;;18.60;99.90;;;;;;5034482;28;20058;-75
2022/10/28 07:14:44;;;;;;;22.42;9.25;;;18.60;99.90;;;;;;5035301;28;20032;-75
2022/10/28 07:17:10;;;;;;;27.40;10.18;;;18.60;99.90;;;;;;5028515;28;20553;-76
2022/10/28 07:19:36;;;;;;;27.10;9.98;;;18.70;99.90;;;;;;5014956;28;20407;-75
2022/10/28 07:22:02;;;;;;;24.33;10.90;;;18.60;99.90;;;;;;5016102;28;20084;-76
2022/10/28 07:24:27;;;;;;;20.13;8.90;;;18.60;99.90;;;;;;5012897;28;20030;-76
2022/10/28 07:26:53;;;;;;;23.75;9.70;;;18.70;99.90;;;;;;5016165;28;20022;-75
2022/10/28 07:29:19;;;;;;;18.63;9.32;;;18.60;99.90;;;;;;5032346;28;20025;-75
2022/10/28 07:31:45;;;;;;;29.88;10.43;;;18.70;99.90;;;;;;5015292;28;20037;-77
2022/10/28 07:34:11;;;;;;;22.85;9.50;;;18.60;99.90;;;;;;5019068;28;20390;-75
2022/10/28 07:36:36;;;;;;;23.38;9.23;;;18.70;99.90;;;;;;5016672;28;20101;-75
2022/10/28 07:39:03;;;;;;;34.25;10.73;;;18.70;99.90;;;;;;5017423;28;20568;-76
2022/10/28 07:41:28;;;;;;;22.92;9.95;;;18.70;99.90;;;;;;5016686;28;20490;-76
2022/10/28 07:43:54;;;;;;;16.63;9.50;;;18.70;99.90;;;;;;5023048;28;20169;-76
2022/10/28 07:46:20;;;;;;;25.92;9.50;;;18.70;99.90;;;;;;5024752;28;20109;-75
2022/10/28 07:48:46;;;;;;;17.55;8.73;;;18.70;99.90;;;;;;5015488;28;20056;-76
2022/10/28 07:51:14;;;;;;;24.35;9.02;;;18.70;99.90;;;;;;5022836;28;20049;-74
2022/10/28 07:53:40;;;;;;;20.00;7.97;;;18.70;99.90;;;;;;5021179;28;20021;-74
2022/10/28 07:56:12;;;;;;;23.02;8.63;;;18.70;99.90;;;;;;5016441;28;20041;-74
2022/10/28 07:58:38;;;;;;;29.52;10.10;;;18.80;99.90;;;;;;5020846;28;20068;-75
2022/10/28 08:01:06;;;;;;;23.60;9.30;;;18.80;99.90;;;;;;5024468;28;20084;-76
2022/10/28 08:03:32;;;;;;;26.52;10.45;;;18.80;99.90;;;;;;5028871;28;20072;-76
2022/10/28 08:06:03;;;;;;;20.98;9.82;;;18.90;99.90;;;;;;5020412;28;20101;-75
2022/10/28 08:08:29;;;;;;;23.23;8.88;;;18.90;99.90;;;;;;5017159;28;20042;-75
2022/10/28 08:10:55;;;;;;;21.92;9.55;;;18.90;99.90;;;;;;5020747;28;20112;-75
2022/10/28 08:13:22;;;;;;;23.40;9.77;;;18.90;99.90;;;;;;5021630;28;20061;-76
2022/10/28 08:15:54;;;;;;;23.05;8.95;;;18.90;99.90;;;;;;5028207;28;20109;-75
2022/10/28 08:18:21;;;;;;;28.50;9.32;;;19.00;99.90;;;;;;5025839;28;20022;-75
2022/10/28 08:20:47;;;;;;;24.67;9.55;;;19.00;99.90;;;;;;5021669;28;20022;-76
2022/10/28 08:23:13;;;;;;;22.05;8.30;;;19.00;99.90;;;;;;5020093;28;20033;-75
2022/10/28 08:25:50;;;;;;;26.27;9.25;;;19.00;99.90;;;;;;5002228;28;20026;-76
2022/10/28 08:28:16;;;;;;;19.33;8.55;;;19.10;99.90;;;;;;5027722;28;20433;-75
2022/10/28 08:30:42;;;;;;;19.52;9.02;;;19.10;99.90;;;;;;5031869;28;20056;-76
2022/10/28 08:33:08;;;;;;;19.73;9.23;;;19.10;99.90;;;;;;5029972;28;20083;-75
2022/10/28 08:35:36;;;;;;;25.73;10.00;;;19.10;99.90;;;;;;5025791;28;20018;-75
2022/10/28 08:38:03;;;;;;;24.85;10.55;;;19.10;99.90;;;;;;5019084;28;20036;-75
2022/10/28 08:40:50;;;;;;;24.48;11.00;;;19.20;99.90;;;;;;5023483;28;20060;-73
2022/10/28 08:43:52;;;;;;;22.23;8.57;;;19.30;99.90;;;;;;5020417;28;20137;-74
2022/10/28 08:47:01;;;;;;;27.77;10.57;;;19.30;99.90;;;;;;5027568;28;20026;-74
2022/10/28 08:49:31;;;;;;;26.77;10.52;;;19.40;99.90;;;;;;5032123;28;20026;-74
2022/10/28 08:52:02;;;;;;;18.23;8.77;;;19.40;99.90;;;;;;5027671;28;20077;-72
2022/10/28 08:54:49;;;;;;;23.77;8.73;;;19.50;99.90;;;;;;5028047;28;20207;-74
2022/10/28 08:57:27;;;;;;;19.70;8.07;;;19.60;99.90;;;;;;5018566;28;20050;-72
2022/10/28 08:59:54;;;;;;;25.25;9.27;;;19.60;99.90;;;;;;5031145;28;20402;-74
2022/10/28 09:02:27;;;;;;;23.88;8.88;;;19.70;99.90;;;;;;5023977;28;20060;-74
2022/10/28 09:05:14;;;;;;;21.48;8.20;;;19.80;99.90;;;;;;5024099;28;20160;-74
2022/10/28 09:07:39;;;;;;;25.35;8.90;;;20.10;99.90;;;;;;5031999;28;20026;-74
2022/10/28 09:10:06;;;;;;;27.60;9.23;;;20.20;99.90;;;;;;5034896;28;20037;-75
2022/10/28 09:12:41;;;;;;;20.20;8.85;;;20.20;99.90;;;;;;5026886;28;20053;-73
2022/10/28 09:15:35;;;;;;;27.92;9.52;;;20.30;99.90;;;;;;5022083;28;20027;-73
2022/10/28 09:18:26;;;;;;;23.60;8.50;;;20.30;99.90;;;;;;5028096;28;20072;-74
2022/10/28 09:20:56;;;;;;;;;;;20.40;99.90;;;;;;5022921;28;20037;-73
2022/10/28 09:23:23;;;;;;;26.75;7.88;;;20.40;99.90;;;;;;5024800;28;20215;-73
2022/10/28 09:26:07;;;;;;;23.38;9.02;;;20.50;99.90;;;;;;5021757;28;20022;-75
2022/10/28 09:28:45;;;;;;;26.55;8.70;;;20.60;99.90;;;;;;5018308;28;20073;-74
2022/10/28 09:31:22;;;;;;;25.58;7.65;;;20.60;99.90;;;;;;5017151;28;20489;-73
2022/10/28 09:34:22;;;;;;;27.25;9.95;;;20.60;99.90;;;;;;5033961;28;20051;-74
2022/10/28 09:37:15;;;;;;;35.42;9.05;;;20.60;99.90;;;;;;5022312;28;20018;-73
2022/10/28 09:39:45;;;;;;;18.65;7.60;;;20.60;99.90;;;;;;5020802;28;20046;-74
2022/10/28 09:42:18;;;;;;;21.48;7.88;;;20.70;99.90;;;;;;5019969;28;20053;-74
2022/10/28 09:44:49;;;;;;;24.70;8.38;;;20.70;99.90;;;;;;5024653;28;20034;-74
2022/10/28 09:47:44;;;;;;;26.38;9.48;;;20.80;99.90;;;;;;5025995;28;20033;-74
2022/10/28 09:50:30;;;;;;;28.92;8.07;;;20.80;99.90;;;;;;5017953;28;20041;-75
2022/10/28 09:53:26;;;;;;;25.98;9.02;;;20.90;99.90;;;;;;5017146;28;20072;-74
2022/10/28 09:55:52;;;;;;;20.33;8.18;;;21.00;99.90;;;;;;5019692;28;20034;-75
2022/10/28 09:58:18;;;;;;;22.13;8.23;;;21.10;99.90;;;;;;5022968;28;20030;-75
2022/10/28 10:00:44;;;;;;;24.38;7.38;;;21.00;99.90;;;;;;5017440;28;20034;-75
2022/10/28 10:03:10;;;;;;;24.55;7.88;;;21.10;99.90;;;;;;5017259;28;20034;-74
2022/10/28 10:05:47;;;;;;;14.82;6.60;;;21.10;99.90;;;;;;5015962;28;20034;-75
2022/10/28 10:08:17;;;;;;;26.50;8.82;;;21.10;99.90;;;;;;5017996;28;20483;-74
2022/10/28 10:10:47;;;;;;;16.70;7.55;;;21.10;99.90;;;;;;5021697;28;20483;-75
2022/10/28 10:13:16;;;;;;;22.88;7.28;;;21.10;99.90;;;;;;5019595;28;20049;-75
2022/10/28 10:15:47;;;;;;;22.63;8.25;;;21.10;99.90;;;;;;5018177;28;20467;-76
2022/10/28 10:18:21;;;;;;;24.73;7.85;;;21.20;99.90;;;;;;5017433;28;20073;-74
2022/10/28 10:20:57;;;;;;;19.42;7.55;;;21.20;99.90;;;;;;5017826;28;20037;-74
2022/10/28 10:23:27;;;;;;;18.40;7.90;;;21.40;99.90;;;;;;5023775;28;20021;-76
2022/10/28 10:26:15;;;;;;;23.33;8.00;;;21.50;99.90;;;;;;5022992;28;20521;-75
2022/10/28 10:28:47;;;;;;;19.23;7.97;;;21.50;99.90;;;;;;5032575;28;20067;-75
2022/10/28 10:31:25;;;;;;;21.98;7.95;;;21.60;99.90;;;;;;5033819;28;20025;-74
2022/10/28 10:33:54;;;;;;;26.70;7.20;;;21.60;99.90;;;;;;5027782;28;20053;-75
2022/10/28 10:36:30;;;;;;;25.17;7.82;;;21.60;99.90;;;;;;5016835;28;20525;-76
2022/10/28 10:38:58;;;;;;;22.73;8.00;;;21.60;99.90;;;;;;5007437;28;20032;-76
2022/10/28 10:41:37;;;;;;;30.67;8.07;;;21.50;99.90;;;;;;5024746;28;20037;-76
2022/10/28 10:44:21;;;;;;;24.98;8.07;;;21.60;99.90;;;;;;5022725;28;20030;-75
2022/10/28 10:46:47;;;;;;;28.40;8.27;;;21.70;99.90;;;;;;5034161;28;20389;-76
2022/10/28 10:49:14;;;;;;;23.35;7.65;;;21.70;99.90;;;;;;5021856;28;20114;-76
2022/10/28 10:51:57;;;;;;;21.70;8.40;;;21.70;99.90;;;;;;5029854;28;20049;-76
2022/10/28 10:54:25;;;;;;;26.45;7.40;;;21.70;99.90;;;;;;5008262;28;20390;-76
2022/10/28 10:56:51;;;;;;;27.08;7.72;;;21.70;99.90;;;;;;5016482;28;20117;-76
2022/10/28 10:59:27;;;;;;;24.15;7.88;;;21.70;99.90;;;;;;5017886;28;20044;-76
2022/10/28 11:01:56;;;;;;;31.42;8.32;;;21.70;99.90;;;;;;5015991;28;20541;-76
2022/10/28 11:04:25;;;;;;;26.52;7.43;;;21.70;99.90;;;;;;5016197;28;20033;-76
2022/10/28 11:06:53;;;;;;;23.48;7.90;;;21.70;99.90;;;;;;5023259;28;20033;-77
2022/10/28 11:09:35;;;;;;;24.77;7.55;;;21.70;99.90;;;;;;5017317;28;20157;-76
2022/10/28 11:12:33;;;;;;;25.13;7.75;;;21.70;99.90;;;;;;5025201;28;20041;-76
2022/10/28 11:15:02;;;;;;;18.27;7.38;;;21.50;99.90;;;;;;5019567;28;20113;-76
2022/10/28 11:17:33;;;;;;;31.80;8.90;;;21.60;99.90;;;;;;5012507;28;20022;-76
2022/10/28 11:20:17;;;;;;;22.75;8.32;;;21.60;99.90;;;;;;5011919;28;20065;-77
2022/10/28 11:22:53;;;;;;;18.05;8.52;;;21.70;99.90;;;;;;5026790;28;20025;-77
2022/10/28 11:25:42;;;;;;;28.83;8.57;;;21.70;99.90;;;;;;5033850;28;20052;-77
2022/10/28 11:28:19;;;;;;;22.92;8.35;;;21.70;99.90;;;;;;5033497;28;20022;-75
2022/10/28 11:31:07;;;;;;;26.88;8.43;;;21.60;99.90;;;;;;5032376;28;20545;-76
2022/10/28 11:34:03;;;;;;;13.70;6.35;;;21.60;99.90;;;;;;5017391;28;21349;-76
2022/10/28 11:37:10;;;;;;;19.90;7.68;;;21.60;99.90;;;;;;5017269;28;20065;-77
2022/10/28 11:40:02;;;;;;;27.98;8.65;;;21.60;99.90;;;;;;5044369;28;20521;-76
2022/10/28 11:42:47;;;;;;;20.23;8.27;;;21.70;99.90;;;;;;5015453;28;20029;-76
2022/10/28 11:45:12;;;;;;;20.85;7.72;;;21.70;99.90;;;;;;5015721;28;20053;-76
2022/10/28 11:47:47;;;;;;;19.83;7.38;;;21.70;99.90;;;;;;5015625;28;20041;-75
2022/10/28 11:50:25;;;;;;;21.92;7.65;;;21.70;99.90;;;;;;5013262;28;20076;-77
2022/10/28 11:53:10;;;;;;;24.45;7.50;;;21.80;99.90;;;;;;5015597;28;20116;-77
2022/10/28 11:55:42;;;;;;;21.90;8.10;;;21.90;99.90;;;;;;5030504;28;20022;-79
2022/10/28 11:58:36;;;;;;;24.45;7.32;;;21.90;99.90;;;;;;5032424;28;20033;-77
2022/10/28 12:01:08;;;;;;;17.73;7.50;;;21.90;99.90;;;;;;5031980;28;20025;-79
2022/10/28 12:04:24;;;;;;;21.95;7.57;;;21.90;99.90;;;;;;5017020;28;20030;-80
2022/10/28 12:07:03;;;;;;;17.45;6.70;;;21.90;99.90;;;;;;5032683;28;20394;-78
2022/10/28 12:09:41;;;;;;;20.48;7.43;;;22.00;99.90;;;;;;5017072;28;20500;-79
2022/10/28 12:12:40;;;;;;;19.02;7.22;;;22.10;99.90;;;;;;5016873;28;20042;-78
2022/10/28 12:15:30;;;;;;;24.42;8.20;;;22.20;99.90;;;;;;5017012;28;20018;-79
2022/10/28 12:18:34;;;;;;;22.73;8.40;;;22.20;99.90;;;;;;5015468;28;20042;-78
2022/10/28 12:21:17;;;;;;;16.55;7.22;;;22.30;99.90;;;;;;5016694;28;20375;-79
2022/10/28 12:23:45;;;;;;;22.25;7.63;;;22.30;99.90;;;;;;5016822;28;20474;-78
2022/10/28 12:26:17;;;;;;;23.25;7.82;;;22.30;99.90;;;;;;5015618;28;20029;-80
2022/10/28 12:28:56;;;;;;;21.83;8.13;;;22.40;99.90;;;;;;5002935;28;20538;-80
2022/10/28 12:31:38;;;;;;;23.55;8.27;;;22.40;99.90;;;;;;5014391;28;20026;-78
2022/10/28 12:34:12;;;;;;;19.00;6.63;;;22.40;99.90;;;;;;5009837;28;20065;-78
2022/10/28 12:36:47;;;;;;;22.40;8.50;;;22.50;99.90;;;;;;5011390;28;20028;-78
2022/10/28 12:39:36;;;;;;;26.80;7.72;;;22.60;99.90;;;;;;5033464;28;20064;-79
2022/10/28 12:42:10;;;;;;;20.50;7.00;;;22.80;99.90;;;;;;5034586;28;20386;-77
2022/10/28 12:44:37;;;;;;;15.02;6.47;;;22.90;99.90;;;;;;5020069;28;20026;-79
2022/10/28 12:47:20;;;;;;;32.50;7.43;;;22.90;99.90;;;;;;5020332;28;20033;-79
2022/10/28 12:50:05;;;;;;;17.00;7.38;;;22.90;99.90;;;;;;5021388;28;20391;-79
2022/10/28 12:52:46;;;;;;;24.35;7.05;;;23.00;99.90;;;;;;5024619;28;20026;-78
2022/10/28 12:55:12;;;;;;;17.55;7.22;;;23.10;99.90;;;;;;5017435;28;20053;-78
2022/10/28 12:57:43;;;;;;;22.17;6.57;;;23.10;99.90;;;;;;5017015;28;20033;-78